sensor_id;sensor_type;location;lat;lon;timestamp;P1;durP1;ratioP1;P2;durP2;ratioP2
20888;SDS011;10604;51.976;7.594;2022-08-03T00:01:39;6.10;;;5.20;;
20888;SDS011;10604;51.976;7.594;2022-08-03T00:04:05;6.17;;;5.57;;
20888;SDS011;10604;51.976;7.594;2022-08-03T00:06:32;5.55;;;5.03;;
20888;SDS011;10604;51.976;7.594;2022-08-03T00:08:58;6.10;;;5.07;;
20888;SDS011;10604;51.976;7.594;2022-08-03T00:11:23;5.70;;;5.17;;
20888;SDS011;10604;51.976;7.594;2022-08-03T00:13:49;6.85;;;5.13;;
20888;SDS011;10604;51.976;7.594;2022-08-03T00:16:15;6.77;;;5.30;;
20888;SDS011;10604;51.976;7.594;2022-08-03T00:18:40;7.75;;;5.50;;
20888;SDS011;10604;51.976;7.594;2022-08-03T00:21:06;6.43;;;5.20;;
20888;SDS011;10604;51.976;7.594;2022-08-03T00:23:32;5.75;;;4.78;;
20888;SDS011;10604;51.976;7.594;2022-08-03T00:25:58;5.87;;;5.30;;
20888;SDS011;10604;51.976;7.594;2022-08-03T00:28:24;6.03;;;5.45;;
20888;SDS011;10604;51.976;7.594;2022-08-03T00:30:49;5.83;;;5.00;;
20888;SDS011;10604;51.976;7.594;2022-08-03T00:33:14;6.18;;;4.80;;
20888;SDS011;10604;51.976;7.594;2022-08-03T00:35:40;5.60;;;5.10;;
20888;SDS011;10604;51.976;7.594;2022-08-03T00:38:05;5.23;;;4.73;;
20888;SDS011;10604;51.976;7.594;2022-08-03T00:40:31;5.90;;;5.20;;
20888;SDS011;10604;51.976;7.594;2022-08-03T00:42:58;7.05;;;4.82;;
20888;SDS011;10604;51.976;7.594;2022-08-03T00:45:26;5.35;;;4.85;;
20888;SDS011;10604;51.976;7.594;2022-08-03T00:47:53;5.80;;;4.93;;
20888;SDS011;10604;51.976;7.594;2022-08-03T00:50:20;6.22;;;4.63;;
20888;SDS011;10604;51.976;7.594;2022-08-03T00:52:47;6.07;;;4.50;;
20888;SDS011;10604;51.976;7.594;2022-08-03T00:55:13;5.32;;;4.82;;
20888;SDS011;10604;51.976;7.594;2022-08-03T00:57:39;6.67;;;5.20;;
20888;SDS011;10604;51.976;7.594;2022-08-03T01:00:06;5.90;;;4.85;;
20888;SDS011;10604;51.976;7.594;2022-08-03T01:02:33;5.93;;;5.13;;
20888;SDS011;10604;51.976;7.594;2022-08-03T01:04:58;6.28;;;5.13;;
20888;SDS011;10604;51.976;7.594;2022-08-03T01:18:27;10.65;;;7.38;;
20888;SDS011;10604;51.976;7.594;2022-08-03T01:20:54;10.20;;;7.95;;
20888;SDS011;10604;51.976;7.594;2022-08-03T01:31:23;12.70;;;9.43;;
20888;SDS011;10604;51.976;7.594;2022-08-03T01:33:59;11.75;;;8.93;;
20888;SDS011;10604;51.976;7.594;2022-08-03T01:36:34;13.00;;;9.27;;
20888;SDS011;10604;51.976;7.594;2022-08-03T01:39:03;13.13;;;9.90;;
20888;SDS011;10604;51.976;7.594;2022-08-03T01:41:34;14.25;;;9.75;;
20888;SDS011;10604;51.976;7.594;2022-08-03T01:44:07;11.88;;;9.27;;
20888;SDS011;10604;51.976;7.594;2022-08-03T01:46:34;13.30;;;9.63;;
20888;SDS011;10604;51.976;7.594;2022-08-03T01:49:01;13.15;;;9.70;;
20888;SDS011;10604;51.976;7.594;2022-08-03T01:51:27;13.67;;;9.60;;
20888;SDS011;10604;51.976;7.594;2022-08-03T01:53:55;12.90;;;9.38;;
20888;SDS011;10604;51.976;7.594;2022-08-03T01:56:23;13.52;;;10.30;;
20888;SDS011;10604;51.976;7.594;2022-08-03T01:58:50;11.43;;;9.65;;
20888;SDS011;10604;51.976;7.594;2022-08-03T02:01:18;13.27;;;9.77;;
20888;SDS011;10604;51.976;7.594;2022-08-03T02:03:45;12.95;;;9.35;;
20888;SDS011;10604;51.976;7.594;2022-08-03T02:06:13;11.88;;;9.55;;
20888;SDS011;10604;51.976;7.594;2022-08-03T02:08:40;13.63;;;9.65;;
20888;SDS011;10604;51.976;7.594;2022-08-03T02:11:08;13.23;;;10.00;;
20888;SDS011;10604;51.976;7.594;2022-08-03T02:13:35;14.15;;;9.70;;
20888;SDS011;10604;51.976;7.594;2022-08-03T02:16:02;13.70;;;9.57;;
20888;SDS011;10604;51.976;7.594;2022-08-03T02:18:29;13.65;;;9.70;;
20888;SDS011;10604;51.976;7.594;2022-08-03T02:20:56;10.20;;;8.40;;
20888;SDS011;10604;51.976;7.594;2022-08-03T02:23:26;9.23;;;7.53;;
20888;SDS011;10604;51.976;7.594;2022-08-03T02:25:56;10.37;;;8.03;;
20888;SDS011;10604;51.976;7.594;2022-08-03T02:28:25;10.10;;;7.47;;
20888;SDS011;10604;51.976;7.594;2022-08-03T02:30:56;10.52;;;6.93;;
20888;SDS011;10604;51.976;7.594;2022-08-03T02:33:24;8.18;;;6.38;;
20888;SDS011;10604;51.976;7.594;2022-08-03T02:35:54;6.97;;;6.28;;
20888;SDS011;10604;51.976;7.594;2022-08-03T02:38:22;7.55;;;5.90;;
20888;SDS011;10604;51.976;7.594;2022-08-03T02:40:55;8.37;;;6.20;;
20888;SDS011;10604;51.976;7.594;2022-08-03T02:43:22;9.80;;;6.35;;
20888;SDS011;10604;51.976;7.594;2022-08-03T02:45:50;7.43;;;6.00;;
20888;SDS011;10604;51.976;7.594;2022-08-03T02:48:17;7.65;;;6.35;;
20888;SDS011;10604;51.976;7.594;2022-08-03T02:50:47;10.45;;;6.43;;
20888;SDS011;10604;51.976;7.594;2022-08-03T02:53:15;10.83;;;6.70;;
20888;SDS011;10604;51.976;7.594;2022-08-03T02:55:43;8.50;;;6.53;;
20888;SDS011;10604;51.976;7.594;2022-08-03T02:58:11;7.97;;;6.57;;
20888;SDS011;10604;51.976;7.594;2022-08-03T03:00:38;7.72;;;6.68;;
20888;SDS011;10604;51.976;7.594;2022-08-03T03:03:05;10.73;;;7.30;;
20888;SDS011;10604;51.976;7.594;2022-08-03T03:05:31;8.48;;;7.10;;
20888;SDS011;10604;51.976;7.594;2022-08-03T03:07:58;9.50;;;7.68;;
20888;SDS011;10604;51.976;7.594;2022-08-03T03:10:24;9.60;;;7.32;;
20888;SDS011;10604;51.976;7.594;2022-08-03T03:12:51;9.65;;;7.82;;
20888;SDS011;10604;51.976;7.594;2022-08-03T03:15:19;11.57;;;8.10;;
20888;SDS011;10604;51.976;7.594;2022-08-03T03:17:47;10.93;;;8.38;;
20888;SDS011;10604;51.976;7.594;2022-08-03T03:20:14;10.35;;;8.73;;
20888;SDS011;10604;51.976;7.594;2022-08-03T03:22:40;11.10;;;8.98;;
20888;SDS011;10604;51.976;7.594;2022-08-03T03:25:06;10.98;;;8.88;;
20888;SDS011;10604;51.976;7.594;2022-08-03T03:27:32;12.48;;;8.77;;
20888;SDS011;10604;51.976;7.594;2022-08-03T03:29:58;10.20;;;9.02;;
20888;SDS011;10604;51.976;7.594;2022-08-03T03:32:28;10.55;;;8.77;;
20888;SDS011;10604;51.976;7.594;2022-08-03T03:34:54;11.10;;;9.23;;
20888;SDS011;10604;51.976;7.594;2022-08-03T03:37:20;13.63;;;10.43;;
20888;SDS011;10604;51.976;7.594;2022-08-03T03:39:46;13.27;;;10.50;;
20888;SDS011;10604;51.976;7.594;2022-08-03T03:42:11;12.70;;;10.50;;
20888;SDS011;10604;51.976;7.594;2022-08-03T03:44:37;14.02;;;10.80;;
20888;SDS011;10604;51.976;7.594;2022-08-03T03:47:03;14.27;;;11.07;;
20888;SDS011;10604;51.976;7.594;2022-08-03T03:49:29;13.93;;;10.75;;
20888;SDS011;10604;51.976;7.594;2022-08-03T03:51:55;15.47;;;11.23;;
20888;SDS011;10604;51.976;7.594;2022-08-03T03:54:20;14.73;;;11.68;;
20888;SDS011;10604;51.976;7.594;2022-08-03T03:56:46;14.73;;;11.00;;
20888;SDS011;10604;51.976;7.594;2022-08-03T03:59:11;12.65;;;10.38;;
20888;SDS011;10604;51.976;7.594;2022-08-03T04:01:37;14.10;;;10.67;;
20888;SDS011;10604;51.976;7.594;2022-08-03T04:04:03;14.27;;;11.27;;
20888;SDS011;10604;51.976;7.594;2022-08-03T04:06:49;12.68;;;10.70;;
20888;SDS011;10604;51.976;7.594;2022-08-03T04:09:37;13.50;;;10.48;;
20888;SDS011;10604;51.976;7.594;2022-08-03T04:12:23;13.15;;;9.90;;
20888;SDS011;10604;51.976;7.594;2022-08-03T04:14:51;12.77;;;10.50;;
20888;SDS011;10604;51.976;7.594;2022-08-03T04:17:20;12.52;;;9.80;;
20888;SDS011;10604;51.976;7.594;2022-08-03T04:19:51;12.93;;;10.23;;
20888;SDS011;10604;51.976;7.594;2022-08-03T04:22:19;11.30;;;9.63;;
20888;SDS011;10604;51.976;7.594;2022-08-03T04:24:49;13.40;;;9.55;;
20888;SDS011;10604;51.976;7.594;2022-08-03T04:27:21;11.52;;;9.43;;
20888;SDS011;10604;51.976;7.594;2022-08-03T04:29:50;11.80;;;8.32;;
20888;SDS011;10604;51.976;7.594;2022-08-03T04:32:19;10.65;;;8.75;;
20888;SDS011;10604;51.976;7.594;2022-08-03T04:34:47;10.77;;;8.45;;
20888;SDS011;10604;51.976;7.594;2022-08-03T04:37:18;10.25;;;8.48;;
20888;SDS011;10604;51.976;7.594;2022-08-03T04:39:52;11.48;;;8.07;;
20888;SDS011;10604;51.976;7.594;2022-08-03T04:42:21;10.13;;;8.68;;
20888;SDS011;10604;51.976;7.594;2022-08-03T04:44:47;9.38;;;7.93;;
20888;SDS011;10604;51.976;7.594;2022-08-03T04:47:14;9.43;;;8.07;;
20888;SDS011;10604;51.976;7.594;2022-08-03T04:49:40;8.27;;;7.40;;
20888;SDS011;10604;51.976;7.594;2022-08-03T04:52:06;9.32;;;7.65;;
20888;SDS011;10604;51.976;7.594;2022-08-03T04:54:39;8.88;;;7.15;;
20888;SDS011;10604;51.976;7.594;2022-08-03T04:57:09;8.18;;;7.32;;
20888;SDS011;10604;51.976;7.594;2022-08-03T04:59:35;8.05;;;7.22;;
20888;SDS011;10604;51.976;7.594;2022-08-03T05:02:01;9.55;;;7.28;;
20888;SDS011;10604;51.976;7.594;2022-08-03T05:04:26;8.80;;;7.40;;
20888;SDS011;10604;51.976;7.594;2022-08-03T05:06:52;8.60;;;7.55;;
20888;SDS011;10604;51.976;7.594;2022-08-03T05:09:17;9.17;;;7.13;;
20888;SDS011;10604;51.976;7.594;2022-08-03T05:11:43;8.10;;;7.30;;
20888;SDS011;10604;51.976;7.594;2022-08-03T05:14:08;8.40;;;7.50;;
20888;SDS011;10604;51.976;7.594;2022-08-03T05:16:34;9.60;;;7.00;;
20888;SDS011;10604;51.976;7.594;2022-08-03T05:18:59;8.87;;;6.80;;
20888;SDS011;10604;51.976;7.594;2022-08-03T05:21:24;8.23;;;6.53;;
20888;SDS011;10604;51.976;7.594;2022-08-03T05:23:50;9.53;;;7.03;;
20888;SDS011;10604;51.976;7.594;2022-08-03T05:26:15;7.77;;;6.90;;
20888;SDS011;10604;51.976;7.594;2022-08-03T05:28:41;9.30;;;6.93;;
20888;SDS011;10604;51.976;7.594;2022-08-03T05:31:06;9.00;;;6.53;;
20888;SDS011;10604;51.976;7.594;2022-08-03T05:33:32;9.83;;;6.67;;
20888;SDS011;10604;51.976;7.594;2022-08-03T05:35:57;7.78;;;6.05;;
20888;SDS011;10604;51.976;7.594;2022-08-03T05:38:24;7.13;;;6.43;;
20888;SDS011;10604;51.976;7.594;2022-08-03T05:40:49;7.75;;;6.45;;
20888;SDS011;10604;51.976;7.594;2022-08-03T05:43:15;7.63;;;6.07;;
20888;SDS011;10604;51.976;7.594;2022-08-03T05:45:40;8.30;;;6.47;;
20888;SDS011;10604;51.976;7.594;2022-08-03T05:48:06;7.23;;;6.40;;
20888;SDS011;10604;51.976;7.594;2022-08-03T05:50:31;6.43;;;5.73;;
20888;SDS011;10604;51.976;7.594;2022-08-03T05:52:57;7.22;;;5.93;;
20888;SDS011;10604;51.976;7.594;2022-08-03T05:55:22;6.10;;;5.20;;
20888;SDS011;10604;51.976;7.594;2022-08-03T05:57:48;7.07;;;5.37;;
20888;SDS011;10604;51.976;7.594;2022-08-03T06:00:13;6.53;;;5.30;;
20888;SDS011;10604;51.976;7.594;2022-08-03T06:02:39;8.00;;;5.27;;
20888;SDS011;10604;51.976;7.594;2022-08-03T06:05:05;7.37;;;5.30;;
20888;SDS011;10604;51.976;7.594;2022-08-03T06:07:31;8.00;;;5.13;;
20888;SDS011;10604;51.976;7.594;2022-08-03T06:09:56;11.60;;;5.23;;
20888;SDS011;10604;51.976;7.594;2022-08-03T06:12:22;8.67;;;5.10;;
20888;SDS011;10604;51.976;7.594;2022-08-03T06:14:47;9.67;;;5.03;;
20888;SDS011;10604;51.976;7.594;2022-08-03T06:17:12;7.33;;;4.03;;
20888;SDS011;10604;51.976;7.594;2022-08-03T06:19:38;6.88;;;4.35;;
20888;SDS011;10604;51.976;7.594;2022-08-03T06:22:04;7.87;;;4.33;;
20888;SDS011;10604;51.976;7.594;2022-08-03T06:24:29;5.43;;;3.80;;
20888;SDS011;10604;51.976;7.594;2022-08-03T06:26:54;7.47;;;4.43;;
20888;SDS011;10604;51.976;7.594;2022-08-03T06:29:20;5.90;;;3.70;;
20888;SDS011;10604;51.976;7.594;2022-08-03T06:31:45;5.15;;;4.05;;
20888;SDS011;10604;51.976;7.594;2022-08-03T06:34:11;7.57;;;4.30;;
20888;SDS011;10604;51.976;7.594;2022-08-03T06:36:36;8.53;;;4.17;;
20888;SDS011;10604;51.976;7.594;2022-08-03T06:39:02;6.30;;;4.18;;
20888;SDS011;10604;51.976;7.594;2022-08-03T06:41:28;5.80;;;4.00;;
20888;SDS011;10604;51.976;7.594;2022-08-03T06:43:54;8.10;;;4.50;;
20888;SDS011;10604;51.976;7.594;2022-08-03T06:46:19;5.70;;;3.78;;
20888;SDS011;10604;51.976;7.594;2022-08-03T06:48:46;9.73;;;4.57;;
20888;SDS011;10604;51.976;7.594;2022-08-03T06:51:12;7.43;;;4.35;;
20888;SDS011;10604;51.976;7.594;2022-08-03T06:53:37;6.63;;;4.43;;
20888;SDS011;10604;51.976;7.594;2022-08-03T06:56:06;6.30;;;3.97;;
20888;SDS011;10604;51.976;7.594;2022-08-03T06:58:32;5.60;;;4.55;;
20888;SDS011;10604;51.976;7.594;2022-08-03T07:00:58;5.97;;;3.85;;
20888;SDS011;10604;51.976;7.594;2022-08-03T07:03:24;7.45;;;4.28;;
20888;SDS011;10604;51.976;7.594;2022-08-03T07:05:49;6.23;;;4.03;;
20888;SDS011;10604;51.976;7.594;2022-08-03T07:08:15;6.97;;;4.15;;
20888;SDS011;10604;51.976;7.594;2022-08-03T07:10:42;8.45;;;4.15;;
20888;SDS011;10604;51.976;7.594;2022-08-03T07:13:08;8.20;;;4.17;;
20888;SDS011;10604;51.976;7.594;2022-08-03T07:15:34;8.00;;;4.28;;
20888;SDS011;10604;51.976;7.594;2022-08-03T07:17:59;5.80;;;3.75;;
20888;SDS011;10604;51.976;7.594;2022-08-03T07:20:25;5.87;;;4.50;;
20888;SDS011;10604;51.976;7.594;2022-08-03T07:22:50;6.93;;;3.93;;
20888;SDS011;10604;51.976;7.594;2022-08-03T07:25:16;6.33;;;3.77;;
20888;SDS011;10604;51.976;7.594;2022-08-03T07:27:45;7.30;;;4.10;;
20888;SDS011;10604;51.976;7.594;2022-08-03T07:30:11;6.80;;;3.67;;
20888;SDS011;10604;51.976;7.594;2022-08-03T07:32:37;10.10;;;3.83;;
20888;SDS011;10604;51.976;7.594;2022-08-03T07:35:03;8.63;;;3.92;;
20888;SDS011;10604;51.976;7.594;2022-08-03T07:37:30;8.00;;;3.60;;
20888;SDS011;10604;51.976;7.594;2022-08-03T07:39:56;7.73;;;3.90;;
20888;SDS011;10604;51.976;7.594;2022-08-03T07:42:21;9.20;;;3.87;;
20888;SDS011;10604;51.976;7.594;2022-08-03T07:44:48;7.90;;;3.65;;
20888;SDS011;10604;51.976;7.594;2022-08-03T07:47:17;7.37;;;3.43;;
20888;SDS011;10604;51.976;7.594;2022-08-03T07:49:53;5.50;;;3.40;;
20888;SDS011;10604;51.976;7.594;2022-08-03T07:52:18;6.65;;;3.38;;
20888;SDS011;10604;51.976;7.594;2022-08-03T07:55:03;6.68;;;3.33;;
20888;SDS011;10604;51.976;7.594;2022-08-03T07:57:32;7.40;;;2.95;;
20888;SDS011;10604;51.976;7.594;2022-08-03T07:59:58;6.33;;;3.27;;
20888;SDS011;10604;51.976;7.594;2022-08-03T08:02:24;6.45;;;2.75;;
20888;SDS011;10604;51.976;7.594;2022-08-03T08:04:49;5.25;;;2.60;;
20888;SDS011;10604;51.976;7.594;2022-08-03T08:07:15;6.50;;;3.40;;
20888;SDS011;10604;51.976;7.594;2022-08-03T08:09:41;7.78;;;2.83;;
20888;SDS011;10604;51.976;7.594;2022-08-03T08:12:06;7.13;;;2.87;;
20888;SDS011;10604;51.976;7.594;2022-08-03T08:14:33;5.25;;;2.67;;
20888;SDS011;10604;51.976;7.594;2022-08-03T08:16:59;4.90;;;2.70;;
20888;SDS011;10604;51.976;7.594;2022-08-03T08:19:24;9.18;;;2.70;;
20888;SDS011;10604;51.976;7.594;2022-08-03T08:21:50;8.13;;;2.67;;
20888;SDS011;10604;51.976;7.594;2022-08-03T08:24:15;6.50;;;2.70;;
20888;SDS011;10604;51.976;7.594;2022-08-03T08:26:41;6.22;;;2.72;;
20888;SDS011;10604;51.976;7.594;2022-08-03T08:29:06;7.60;;;2.60;;
20888;SDS011;10604;51.976;7.594;2022-08-03T08:31:31;4.70;;;2.73;;
20888;SDS011;10604;51.976;7.594;2022-08-03T08:33:57;6.10;;;2.58;;
20888;SDS011;10604;51.976;7.594;2022-08-03T08:36:22;8.03;;;2.90;;
20888;SDS011;10604;51.976;7.594;2022-08-03T08:38:48;5.07;;;2.67;;
20888;SDS011;10604;51.976;7.594;2022-08-03T08:41:14;6.83;;;2.80;;
20888;SDS011;10604;51.976;7.594;2022-08-03T08:43:40;9.45;;;2.72;;
20888;SDS011;10604;51.976;7.594;2022-08-03T08:46:06;7.85;;;2.80;;
20888;SDS011;10604;51.976;7.594;2022-08-03T08:48:38;7.53;;;2.80;;
20888;SDS011;10604;51.976;7.594;2022-08-03T08:51:06;7.85;;;2.50;;
20888;SDS011;10604;51.976;7.594;2022-08-03T08:53:34;5.97;;;2.65;;
20888;SDS011;10604;51.976;7.594;2022-08-03T08:56:01;7.87;;;2.90;;
20888;SDS011;10604;51.976;7.594;2022-08-03T08:58:28;9.50;;;2.60;;
20888;SDS011;10604;51.976;7.594;2022-08-03T09:01:01;4.70;;;2.35;;
20888;SDS011;10604;51.976;7.594;2022-08-03T09:03:28;5.70;;;2.63;;
20888;SDS011;10604;51.976;7.594;2022-08-03T09:05:53;8.37;;;2.57;;
20888;SDS011;10604;51.976;7.594;2022-08-03T09:08:20;7.82;;;2.80;;
20888;SDS011;10604;51.976;7.594;2022-08-03T09:10:47;5.55;;;2.80;;
20888;SDS011;10604;51.976;7.594;2022-08-03T09:13:12;5.83;;;2.80;;
20888;SDS011;10604;51.976;7.594;2022-08-03T09:15:38;11.40;;;3.10;;
20888;SDS011;10604;51.976;7.594;2022-08-03T09:18:04;5.22;;;2.70;;
20888;SDS011;10604;51.976;7.594;2022-08-03T09:20:30;7.77;;;2.67;;
20888;SDS011;10604;51.976;7.594;2022-08-03T09:23:02;6.40;;;2.70;;
20888;SDS011;10604;51.976;7.594;2022-08-03T09:25:39;6.60;;;2.78;;
20888;SDS011;10604;51.976;7.594;2022-08-03T09:28:10;4.97;;;2.90;;
20888;SDS011;10604;51.976;7.594;2022-08-03T09:30:40;6.97;;;2.60;;
20888;SDS011;10604;51.976;7.594;2022-08-03T09:33:09;7.25;;;2.88;;
20888;SDS011;10604;51.976;7.594;2022-08-03T09:35:42;9.55;;;2.97;;
20888;SDS011;10604;51.976;7.594;2022-08-03T09:38:14;6.88;;;3.08;;
20888;SDS011;10604;51.976;7.594;2022-08-03T09:40:39;5.07;;;2.67;;
20888;SDS011;10604;51.976;7.594;2022-08-03T09:43:06;5.60;;;2.63;;
20888;SDS011;10604;51.976;7.594;2022-08-03T09:45:32;8.32;;;3.15;;
20888;SDS011;10604;51.976;7.594;2022-08-03T09:48:12;6.47;;;2.65;;
20888;SDS011;10604;51.976;7.594;2022-08-03T09:50:58;5.57;;;2.45;;
20888;SDS011;10604;51.976;7.594;2022-08-03T09:53:25;6.65;;;2.83;;
20888;SDS011;10604;51.976;7.594;2022-08-03T09:58:21;4.63;;;2.60;;
20888;SDS011;10604;51.976;7.594;2022-08-03T10:01:03;7.03;;;2.78;;
20888;SDS011;10604;51.976;7.594;2022-08-03T10:03:31;4.17;;;2.70;;
20888;SDS011;10604;51.976;7.594;2022-08-03T10:05:59;6.53;;;2.67;;
20888;SDS011;10604;51.976;7.594;2022-08-03T10:08:39;4.20;;;2.67;;
20888;SDS011;10604;51.976;7.594;2022-08-03T10:11:04;4.27;;;2.57;;
20888;SDS011;10604;51.976;7.594;2022-08-03T10:13:30;4.70;;;2.85;;
20888;SDS011;10604;51.976;7.594;2022-08-03T10:15:56;4.37;;;2.70;;
20888;SDS011;10604;51.976;7.594;2022-08-03T10:18:21;6.27;;;2.63;;
20888;SDS011;10604;51.976;7.594;2022-08-03T10:20:54;6.38;;;3.00;;
20888;SDS011;10604;51.976;7.594;2022-08-03T10:23:27;4.47;;;2.38;;
20888;SDS011;10604;51.976;7.594;2022-08-03T10:25:55;5.97;;;2.83;;
20888;SDS011;10604;51.976;7.594;2022-08-03T10:28:23;5.67;;;2.90;;
20888;SDS011;10604;51.976;7.594;2022-08-03T10:30:50;7.88;;;2.70;;
20888;SDS011;10604;51.976;7.594;2022-08-03T10:33:19;7.43;;;2.67;;
20888;SDS011;10604;51.976;7.594;2022-08-03T10:35:48;4.10;;;2.60;;
20888;SDS011;10604;51.976;7.594;2022-08-03T10:38:19;7.47;;;2.80;;
20888;SDS011;10604;51.976;7.594;2022-08-03T10:40:49;6.85;;;2.58;;
20888;SDS011;10604;51.976;7.594;2022-08-03T10:43:20;7.07;;;2.60;;
20888;SDS011;10604;51.976;7.594;2022-08-03T10:45:49;5.88;;;2.30;;
20888;SDS011;10604;51.976;7.594;2022-08-03T10:48:15;6.70;;;2.53;;
20888;SDS011;10604;51.976;7.594;2022-08-03T10:50:42;4.70;;;2.30;;
20888;SDS011;10604;51.976;7.594;2022-08-03T10:53:08;3.78;;;2.35;;
20888;SDS011;10604;51.976;7.594;2022-08-03T10:55:35;9.30;;;2.67;;
20888;SDS011;10604;51.976;7.594;2022-08-03T10:59:06;4.85;;;2.42;;
20888;SDS011;10604;51.976;7.594;2022-08-03T11:01:16;5.05;;;2.25;;
20888;SDS011;10604;51.976;7.594;2022-08-03T11:06:18;6.57;;;2.95;;
20888;SDS011;10604;51.976;7.594;2022-08-03T11:08:49;6.90;;;2.40;;
20888;SDS011;10604;51.976;7.594;2022-08-03T11:11:44;7.13;;;2.58;;
20888;SDS011;10604;51.976;7.594;2022-08-03T11:16:48;8.40;;;2.88;;
20888;SDS011;10604;51.976;7.594;2022-08-03T11:19:20;4.47;;;2.55;;
20888;SDS011;10604;51.976;7.594;2022-08-03T11:21:52;3.88;;;2.33;;
20888;SDS011;10604;51.976;7.594;2022-08-03T11:37:35;3.77;;;2.50;;
20888;SDS011;10604;51.976;7.594;2022-08-03T11:40:01;7.70;;;2.45;;
20888;SDS011;10604;51.976;7.594;2022-08-03T11:44:54;4.83;;;2.40;;
20888;SDS011;10604;51.976;7.594;2022-08-03T11:47:25;4.60;;;2.40;;
20888;SDS011;10604;51.976;7.594;2022-08-03T11:49:55;5.45;;;2.53;;
20888;SDS011;10604;51.976;7.594;2022-08-03T11:52:24;6.05;;;2.42;;
20888;SDS011;10604;51.976;7.594;2022-08-03T11:54:50;7.50;;;2.63;;
20888;SDS011;10604;51.976;7.594;2022-08-03T11:57:29;4.68;;;2.50;;
20888;SDS011;10604;51.976;7.594;2022-08-03T11:59:58;3.90;;;2.20;;
20888;SDS011;10604;51.976;7.594;2022-08-03T12:02:24;7.37;;;2.83;;
20888;SDS011;10604;51.976;7.594;2022-08-03T12:04:50;6.45;;;2.63;;
20888;SDS011;10604;51.976;7.594;2022-08-03T12:07:16;6.20;;;2.58;;
20888;SDS011;10604;51.976;7.594;2022-08-03T12:09:42;6.15;;;2.83;;
20888;SDS011;10604;51.976;7.594;2022-08-03T12:12:08;6.28;;;3.17;;
20888;SDS011;10604;51.976;7.594;2022-08-03T12:14:33;6.47;;;3.00;;
20888;SDS011;10604;51.976;7.594;2022-08-03T12:16:59;7.20;;;3.20;;
20888;SDS011;10604;51.976;7.594;2022-08-03T12:19:24;4.93;;;2.60;;
20888;SDS011;10604;51.976;7.594;2022-08-03T12:21:50;7.73;;;2.77;;
20888;SDS011;10604;51.976;7.594;2022-08-03T12:24:16;4.20;;;2.60;;
20888;SDS011;10604;51.976;7.594;2022-08-03T12:26:45;6.85;;;2.75;;
20888;SDS011;10604;51.976;7.594;2022-08-03T12:29:19;5.13;;;2.50;;
20888;SDS011;10604;51.976;7.594;2022-08-03T12:31:45;5.00;;;2.70;;
20888;SDS011;10604;51.976;7.594;2022-08-03T12:34:11;7.87;;;2.70;;
20888;SDS011;10604;51.976;7.594;2022-08-03T12:36:48;8.52;;;2.60;;
20888;SDS011;10604;51.976;7.594;2022-08-03T12:39:15;7.65;;;2.72;;
20888;SDS011;10604;51.976;7.594;2022-08-03T12:41:40;8.23;;;2.80;;
20888;SDS011;10604;51.976;7.594;2022-08-03T12:44:06;6.80;;;2.80;;
20888;SDS011;10604;51.976;7.594;2022-08-03T12:46:39;6.82;;;2.65;;
20888;SDS011;10604;51.976;7.594;2022-08-03T12:49:06;7.70;;;2.83;;
20888;SDS011;10604;51.976;7.594;2022-08-03T12:51:54;10.68;;;3.22;;
20888;SDS011;10604;51.976;7.594;2022-08-03T12:54:27;7.40;;;3.00;;
20888;SDS011;10604;51.976;7.594;2022-08-03T12:59:24;8.80;;;2.80;;
20888;SDS011;10604;51.976;7.594;2022-08-03T13:01:51;8.33;;;2.93;;
20888;SDS011;10604;51.976;7.594;2022-08-03T13:04:30;6.47;;;2.83;;
20888;SDS011;10604;51.976;7.594;2022-08-03T13:07:08;5.63;;;2.63;;
20888;SDS011;10604;51.976;7.594;2022-08-03T13:12:10;6.50;;;2.53;;
20888;SDS011;10604;51.976;7.594;2022-08-03T13:14:44;8.18;;;2.72;;
20888;SDS011;10604;51.976;7.594;2022-08-03T13:17:11;8.05;;;2.25;;
20888;SDS011;10604;51.976;7.594;2022-08-03T13:19:38;7.60;;;2.90;;
20888;SDS011;10604;51.976;7.594;2022-08-03T13:22:16;9.48;;;3.00;;
20888;SDS011;10604;51.976;7.594;2022-08-03T13:24:49;8.48;;;2.88;;
20888;SDS011;10604;51.976;7.594;2022-08-03T13:27:16;8.07;;;2.70;;
20888;SDS011;10604;51.976;7.594;2022-08-03T13:29:42;6.47;;;2.50;;
20888;SDS011;10604;51.976;7.594;2022-08-03T13:32:08;7.33;;;2.67;;
20888;SDS011;10604;51.976;7.594;2022-08-03T13:34:34;7.53;;;2.47;;
20888;SDS011;10604;51.976;7.594;2022-08-03T13:37:00;5.93;;;2.30;;
20888;SDS011;10604;51.976;7.594;2022-08-03T13:39:26;8.52;;;2.40;;
20888;SDS011;10604;51.976;7.594;2022-08-03T13:41:51;10.40;;;2.20;;
20888;SDS011;10604;51.976;7.594;2022-08-03T13:44:17;11.23;;;2.50;;
20888;SDS011;10604;51.976;7.594;2022-08-03T13:46:43;6.93;;;2.30;;
20888;SDS011;10604;51.976;7.594;2022-08-03T13:49:09;7.07;;;2.30;;
20888;SDS011;10604;51.976;7.594;2022-08-03T13:51:34;8.02;;;2.13;;
20888;SDS011;10604;51.976;7.594;2022-08-03T13:54:00;8.57;;;2.50;;
20888;SDS011;10604;51.976;7.594;2022-08-03T13:56:26;5.63;;;2.60;;
20888;SDS011;10604;51.976;7.594;2022-08-03T13:58:51;8.48;;;2.58;;
20888;SDS011;10604;51.976;7.594;2022-08-03T14:01:17;8.20;;;2.50;;
20888;SDS011;10604;51.976;7.594;2022-08-03T14:03:42;6.97;;;2.20;;
20888;SDS011;10604;51.976;7.594;2022-08-03T14:06:07;6.93;;;2.23;;
20888;SDS011;10604;51.976;7.594;2022-08-03T14:08:33;7.93;;;2.88;;
20888;SDS011;10604;51.976;7.594;2022-08-03T14:10:58;7.65;;;2.25;;
20888;SDS011;10604;51.976;7.594;2022-08-03T14:13:24;8.63;;;2.33;;
20888;SDS011;10604;51.976;7.594;2022-08-03T14:15:49;7.63;;;2.20;;
20888;SDS011;10604;51.976;7.594;2022-08-03T14:18:16;7.07;;;2.30;;
20888;SDS011;10604;51.976;7.594;2022-08-03T14:20:43;5.33;;;2.00;;
20888;SDS011;10604;51.976;7.594;2022-08-03T14:23:09;5.78;;;2.05;;
20888;SDS011;10604;51.976;7.594;2022-08-03T14:25:34;8.35;;;2.28;;
20888;SDS011;10604;51.976;7.594;2022-08-03T14:28:00;8.00;;;2.20;;
20888;SDS011;10604;51.976;7.594;2022-08-03T14:30:25;5.90;;;2.00;;
20888;SDS011;10604;51.976;7.594;2022-08-03T14:32:51;4.60;;;1.88;;
20888;SDS011;10604;51.976;7.594;2022-08-03T14:35:16;6.00;;;2.03;;
20888;SDS011;10604;51.976;7.594;2022-08-03T14:37:42;6.60;;;2.00;;
20888;SDS011;10604;51.976;7.594;2022-08-03T14:40:07;6.57;;;1.90;;
20888;SDS011;10604;51.976;7.594;2022-08-03T14:42:33;5.50;;;1.77;;
20888;SDS011;10604;51.976;7.594;2022-08-03T14:44:58;7.13;;;1.90;;
20888;SDS011;10604;51.976;7.594;2022-08-03T14:47:24;4.87;;;1.90;;
20888;SDS011;10604;51.976;7.594;2022-08-03T14:49:49;7.07;;;1.63;;
20888;SDS011;10604;51.976;7.594;2022-08-03T14:52:14;8.82;;;1.90;;
20888;SDS011;10604;51.976;7.594;2022-08-03T14:54:40;8.00;;;1.90;;
20888;SDS011;10604;51.976;7.594;2022-08-03T14:57:05;6.77;;;1.93;;
20888;SDS011;10604;51.976;7.594;2022-08-03T14:59:31;6.97;;;1.70;;
20888;SDS011;10604;51.976;7.594;2022-08-03T15:01:56;6.43;;;2.70;;
20888;SDS011;10604;51.976;7.594;2022-08-03T15:04:21;4.70;;;1.50;;
20888;SDS011;10604;51.976;7.594;2022-08-03T15:06:47;6.57;;;1.80;;
20888;SDS011;10604;51.976;7.594;2022-08-03T15:09:12;6.17;;;1.80;;
20888;SDS011;10604;51.976;7.594;2022-08-03T15:11:38;7.93;;;1.80;;
20888;SDS011;10604;51.976;7.594;2022-08-03T15:14:03;6.15;;;1.90;;
20888;SDS011;10604;51.976;7.594;2022-08-03T15:16:29;4.83;;;1.80;;
20888;SDS011;10604;51.976;7.594;2022-08-03T15:18:54;6.47;;;1.60;;
20888;SDS011;10604;51.976;7.594;2022-08-03T15:21:20;4.55;;;1.50;;
20888;SDS011;10604;51.976;7.594;2022-08-03T15:23:45;5.63;;;1.83;;
20888;SDS011;10604;51.976;7.594;2022-08-03T15:26:11;3.97;;;1.60;;
20888;SDS011;10604;51.976;7.594;2022-08-03T15:28:36;6.20;;;1.77;;
20888;SDS011;10604;51.976;7.594;2022-08-03T15:31:02;2.78;;;1.30;;
20888;SDS011;10604;51.976;7.594;2022-08-03T15:33:27;5.97;;;1.47;;
20888;SDS011;10604;51.976;7.594;2022-08-03T15:35:53;7.10;;;1.70;;